createdAt,value
2022-10-09T00:00:30.001Z,1019.60
2022-10-09T00:01:29.982Z,1019.58
2022-10-09T00:03:34.052Z,1019.60
2022-10-09T00:04:34.047Z,1019.58
2022-10-09T00:06:27.041Z,1019.63
2022-10-09T00:07:27.068Z,1019.63
2022-10-09T00:08:27.099Z,1019.67
2022-10-09T00:09:27.130Z,1019.71
2022-10-09T00:10:27.160Z,1019.72
2022-10-09T00:11:27.196Z,1019.73
2022-10-09T00:12:27.222Z,1019.78
2022-10-09T00:13:27.256Z,1019.69
2022-10-09T00:14:27.285Z,1019.72
2022-10-09T00:15:27.319Z,1019.76
2022-10-09T00:16:27.376Z,1019.78
2022-10-09T00:17:27.388Z,1019.78
2022-10-09T00:18:27.413Z,1019.84
2022-10-09T00:19:27.450Z,1019.82
2022-10-09T00:20:27.477Z,1019.84
2022-10-09T00:21:27.507Z,1019.84
2022-10-09T00:22:27.539Z,1019.89
2022-10-09T00:23:27.572Z,1019.89
2022-10-09T00:24:27.603Z,1019.84
2022-10-09T00:25:27.713Z,1019.89
2022-10-09T00:26:27.665Z,1019.93
2022-10-09T00:27:27.698Z,1019.95
2022-10-09T00:28:27.787Z,1019.94
2022-10-09T00:29:27.760Z,1019.91
2022-10-09T00:30:27.917Z,1019.92
2022-10-09T00:31:27.824Z,1019.92
2022-10-09T00:32:27.855Z,1019.93
2022-10-09T00:33:27.886Z,1019.93
2022-10-09T00:34:27.917Z,1019.94
2022-10-09T00:35:27.950Z,1019.98
2022-10-09T00:36:27.987Z,1019.96
2022-10-09T00:37:28.012Z,1019.98
2022-10-09T00:38:28.044Z,1019.99
2022-10-09T00:39:28.077Z,1020.01
2022-10-09T00:40:28.113Z,1020.04
2022-10-09T00:41:28.139Z,1020.02
2022-10-09T00:42:28.170Z,1020.04
2022-10-09T00:43:28.204Z,1020.09
2022-10-09T00:44:28.233Z,1020.13
2022-10-09T00:45:28.265Z,1020.12
2022-10-09T00:46:28.427Z,1020.13
2022-10-09T00:47:28.330Z,1020.12
2022-10-09T00:48:28.360Z,1020.13
2022-10-09T00:49:28.392Z,1020.15
2022-10-09T00:50:28.423Z,1020.13
2022-10-09T00:51:28.455Z,1020.16
2022-10-09T00:52:28.486Z,1020.15
2022-10-09T00:53:28.518Z,1020.18
2022-10-09T00:54:28.548Z,1020.18
2022-10-09T00:55:28.581Z,1020.17
2022-10-09T00:56:28.610Z,1020.19
2022-10-09T00:57:28.646Z,1020.16
2022-10-09T00:58:28.675Z,1020.17
2022-10-09T00:59:28.706Z,1020.19
2022-10-09T01:00:28.742Z,1020.18
2022-10-09T01:01:28.844Z,1020.21
2022-10-09T01:02:28.853Z,1020.24
2022-10-09T01:03:28.840Z,1020.20
2022-10-09T01:04:28.865Z,1020.19
2022-10-09T01:05:28.895Z,1020.22
2022-10-09T01:06:28.930Z,1020.22
2022-10-09T01:07:28.959Z,1020.25
2022-10-09T01:08:28.989Z,1020.26
2022-10-09T01:09:29.020Z,1020.25
2022-10-09T01:10:29.062Z,1020.24
2022-10-09T01:11:29.083Z,1020.25
2022-10-09T01:12:29.123Z,1020.28
2022-10-09T01:13:29.147Z,1020.25
2022-10-09T01:14:29.178Z,1020.27
2022-10-09T01:15:29.242Z,1020.28
2022-10-09T01:16:29.241Z,1020.29
2022-10-09T01:17:29.292Z,1020.29
2022-10-09T01:18:29.306Z,1020.31
2022-10-09T01:19:29.335Z,1020.29
2022-10-09T01:20:29.371Z,1020.33
2022-10-09T01:21:29.397Z,1020.33
2022-10-09T01:22:29.433Z,1020.30
2022-10-09T01:23:29.460Z,1020.31
2022-10-09T01:24:29.495Z,1020.30
2022-10-09T01:25:29.523Z,1020.31
2022-10-09T01:26:29.557Z,1020.28
2022-10-09T01:27:29.585Z,1020.35
2022-10-09T01:28:29.638Z,1020.32
2022-10-09T01:29:29.650Z,1020.32
2022-10-09T01:30:29.681Z,1020.34
2022-10-09T01:31:29.884Z,1020.31
2022-10-09T01:32:29.746Z,1020.31
2022-10-09T01:33:29.774Z,1020.30
2022-10-09T01:34:29.811Z,1020.32
2022-10-09T01:35:29.836Z,1020.33
2022-10-09T01:36:29.869Z,1020.33
2022-10-09T01:37:29.929Z,1020.35
2022-10-09T01:38:29.931Z,1020.37
2022-10-09T01:39:29.969Z,1020.38
2022-10-09T01:40:29.997Z,1020.42
2022-10-09T01:41:30.025Z,1020.44
2022-10-09T01:42:30.058Z,1020.44
2022-10-09T01:43:30.086Z,1020.49
2022-10-09T01:44:30.120Z,1020.50
2022-10-09T01:45:30.341Z,1020.51
2022-10-09T01:46:30.213Z,1020.49
2022-10-09T01:47:30.213Z,1020.51
2022-10-09T01:48:30.256Z,1020.49
2022-10-09T01:49:30.289Z,1020.53
2022-10-09T01:50:30.318Z,1020.54
2022-10-09T01:51:30.347Z,1020.55
2022-10-09T01:52:30.381Z,1020.60
2022-10-09T01:53:30.409Z,1020.57
2022-10-09T01:54:30.447Z,1020.59
2022-10-09T01:55:30.475Z,1020.62
2022-10-09T01:56:30.505Z,1020.63
2022-10-09T01:57:30.535Z,1020.60
2022-10-09T01:58:30.568Z,1020.62
2022-10-09T01:59:30.603Z,1020.62
2022-10-09T02:00:30.633Z,1020.66
2022-10-09T02:01:30.738Z,1020.64
2022-10-09T02:02:30.747Z,1020.63
2022-10-09T02:03:30.724Z,1020.63
2022-10-09T02:04:30.756Z,1020.66
2022-10-09T02:05:30.787Z,1020.62
2022-10-09T02:06:30.820Z,1020.66
2022-10-09T02:07:30.848Z,1020.62
2022-10-09T02:08:30.881Z,1020.64
2022-10-09T02:09:30.910Z,1020.64
2022-10-09T02:10:30.945Z,1020.61
2022-10-09T02:11:30.972Z,1020.63
2022-10-09T02:12:31.005Z,1020.62
2022-10-09T02:13:31.039Z,1020.61
2022-10-09T02:14:31.066Z,1020.62
2022-10-09T02:15:31.250Z,1020.64
2022-10-09T02:16:36.119Z,1020.64
2022-10-09T02:17:31.169Z,1020.64
2022-10-09T02:18:31.192Z,1020.63
2022-10-09T02:19:31.222Z,1020.66
2022-10-09T02:20:31.273Z,1020.63
2022-10-09T02:21:31.286Z,1020.64
2022-10-09T02:22:31.315Z,1020.61
2022-10-09T02:23:31.348Z,1020.64
2022-10-09T02:24:31.379Z,1020.61
2022-10-09T02:25:31.409Z,1020.61
2022-10-09T02:26:31.444Z,1020.63
2022-10-09T02:27:31.472Z,1020.64
2022-10-09T02:28:31.550Z,1020.69
2022-10-09T02:29:31.535Z,1020.68
2022-10-09T02:30:31.566Z,1020.66
2022-10-09T02:31:31.677Z,1020.69
2022-10-09T02:32:31.629Z,1020.67
2022-10-09T02:33:31.657Z,1020.67
2022-10-09T02:34:31.689Z,1020.72
2022-10-09T02:35:31.723Z,1020.68
2022-10-09T02:36:31.757Z,1020.72
2022-10-09T02:37:31.784Z,1020.73
2022-10-09T02:38:31.819Z,1020.72
2022-10-09T02:39:31.847Z,1020.71
2022-10-09T02:40:31.878Z,1020.73
2022-10-09T02:41:31.909Z,1020.71
2022-10-09T02:42:31.940Z,1020.78
2022-10-09T02:43:31.968Z,1020.73
2022-10-09T02:44:32.002Z,1020.68
2022-10-09T02:45:32.033Z,1020.70
2022-10-09T02:46:32.111Z,1020.70
2022-10-09T02:47:32.093Z,1020.72
2022-10-09T02:48:32.127Z,1020.72
2022-10-09T02:49:32.157Z,1020.71
2022-10-09T02:50:39.437Z,1020.71
2022-10-09T02:52:25.369Z,1020.76
2022-10-09T02:53:25.363Z,1020.75
2022-10-09T02:55:18.630Z,1020.76
2022-10-09T02:56:18.613Z,1020.81
2022-10-09T02:58:22.664Z,1020.76
2022-10-09T02:59:22.689Z,1020.75
2022-10-09T03:01:15.683Z,1020.77
2022-10-09T03:02:15.793Z,1020.78
2022-10-09T03:04:19.761Z,1020.78
2022-10-09T03:05:19.789Z,1020.79
2022-10-09T03:07:12.767Z,1020.79
2022-10-09T03:08:12.796Z,1020.80
2022-10-09T03:10:16.846Z,1020.79
2022-10-09T03:11:16.874Z,1020.84
2022-10-09T03:13:10.025Z,1020.79
2022-10-09T03:14:10.053Z,1020.82
2022-10-09T03:16:03.092Z,1020.89
2022-10-09T03:17:03.098Z,1020.84
2022-10-09T03:19:07.202Z,1020.92
2022-10-09T03:20:07.227Z,1020.87
2022-10-09T03:22:00.560Z,1020.91
2022-10-09T03:23:00.534Z,1020.91
2022-10-09T03:24:53.510Z,1020.93
2022-10-09T03:25:53.538Z,1020.92
2022-10-09T03:27:57.653Z,1020.91
2022-10-09T03:28:57.647Z,1020.89
2022-10-09T03:31:01.824Z,1020.93
2022-10-09T03:32:01.776Z,1020.91
2022-10-09T03:34:05.789Z,1020.91
2022-10-09T03:35:05.817Z,1020.92
2022-10-09T03:37:09.871Z,1020.93
2022-10-09T03:38:09.894Z,1020.91
2022-10-09T03:40:14.039Z,1020.92
2022-10-09T03:41:14.021Z,1020.91
2022-10-09T03:43:07.000Z,1020.96
2022-10-09T03:44:07.022Z,1020.97
2022-10-09T03:46:11.202Z,1020.99
2022-10-09T03:47:11.108Z,1021.04
2022-10-09T03:49:04.141Z,1021.00
2022-10-09T03:50:04.164Z,1021.02
2022-10-09T03:51:57.150Z,1021.04
2022-10-09T03:52:57.176Z,1021.01
2022-10-09T03:54:50.326Z,1021.05
2022-10-09T03:55:50.352Z,1021.08
2022-10-09T03:57:43.539Z,1021.09
2022-10-09T03:58:43.527Z,1021.05
2022-10-09T04:00:36.753Z,1021.06
2022-10-09T04:01:36.711Z,1021.09
2022-10-09T04:03:29.758Z,1021.08
2022-10-09T04:04:29.749Z,1021.11
2022-10-09T04:06:22.985Z,1021.13
2022-10-09T04:07:22.972Z,1021.12
2022-10-09T04:09:27.039Z,1021.12
2022-10-09T04:10:27.062Z,1021.17
2022-10-09T04:12:31.121Z,1021.17
2022-10-09T04:13:31.145Z,1021.16
2022-10-09T04:15:35.272Z,1021.13
2022-10-09T04:16:35.382Z,1021.16
2022-10-09T04:18:28.301Z,1021.15
2022-10-09T04:19:28.251Z,1021.14
2022-10-09T04:21:21.226Z,1021.20
2022-10-09T04:22:21.255Z,1021.24
2022-10-09T04:24:25.444Z,1021.25
2022-10-09T04:25:25.483Z,1021.22
2022-10-09T04:27:29.523Z,1021.24
2022-10-09T04:28:29.597Z,1021.28
2022-10-09T04:30:33.637Z,1021.27
2022-10-09T04:31:33.703Z,1021.29
2022-10-09T04:33:26.773Z,1021.31
2022-10-09T04:34:26.801Z,1021.32
2022-10-09T04:36:19.821Z,1021.34
2022-10-09T04:37:19.844Z,1021.32
2022-10-09T04:39:24.087Z,1021.30
2022-10-09T04:40:24.112Z,1021.29
2022-10-09T04:42:17.117Z,1021.31
2022-10-09T04:43:17.110Z,1021.32
2022-10-09T04:45:21.402Z,1021.32
2022-10-09T04:46:21.423Z,1021.31
2022-10-09T04:48:14.403Z,1021.32
2022-10-09T04:49:14.428Z,1021.30
2022-10-09T04:51:07.393Z,1021.31
2022-10-09T04:52:07.422Z,1021.29
2022-10-09T04:54:11.463Z,1021.28
2022-10-09T04:55:11.488Z,1021.30
2022-10-09T04:57:04.493Z,1021.34
2022-10-09T04:58:04.525Z,1021.28
2022-10-09T04:59:57.685Z,1021.34
2022-10-09T05:00:57.755Z,1021.36
2022-10-09T05:02:51.344Z,1021.37
2022-10-09T05:03:50.949Z,1021.37
2022-10-09T05:05:44.230Z,1021.39
2022-10-09T05:06:44.262Z,1021.35
2022-10-09T05:08:37.429Z,1021.39
2022-10-09T05:09:37.459Z,1021.39
2022-10-09T05:11:30.419Z,1021.38
2022-10-09T05:12:30.446Z,1021.44
2022-10-09T05:14:23.465Z,1021.45
2022-10-09T05:15:23.488Z,1021.44
2022-10-09T05:17:20.670Z,1021.51
2022-10-09T05:18:16.683Z,1021.48
2022-10-09T05:20:20.743Z,1021.53
2022-10-09T05:21:20.768Z,1021.50
2022-10-09T05:23:25.135Z,1021.53
2022-10-09T05:24:25.158Z,1021.49
2022-10-09T05:26:18.192Z,1021.57
2022-10-09T05:27:18.177Z,1021.54
2022-10-09T05:29:22.222Z,1021.55
2022-10-09T05:30:22.250Z,1021.58
2022-10-09T05:32:26.346Z,1021.59
2022-10-09T05:33:26.328Z,1021.62
2022-10-09T05:35:30.380Z,1021.61
2022-10-09T05:36:30.410Z,1021.61
2022-10-09T05:38:34.515Z,1021.66
2022-10-09T05:39:34.508Z,1021.65
2022-10-09T05:41:27.505Z,1021.67
2022-10-09T05:42:27.532Z,1021.60
2022-10-09T05:44:31.587Z,1021.65
2022-10-09T05:45:31.654Z,1021.65
2022-10-09T05:47:24.634Z,1021.70
2022-10-09T05:48:24.658Z,1021.70
2022-10-09T05:50:17.847Z,1021.76
2022-10-09T05:51:17.873Z,1021.80
2022-10-09T05:53:10.850Z,1021.86
2022-10-09T05:54:10.876Z,1021.87
2022-10-09T05:56:03.897Z,1021.91
2022-10-09T05:57:03.918Z,1021.87
2022-10-09T05:58:57.079Z,1021.90
2022-10-09T05:59:57.106Z,1021.94
2022-10-09T06:01:50.301Z,1021.93
2022-10-09T06:02:50.475Z,1021.94
2022-10-09T06:04:54.160Z,1021.95
2022-10-09T06:05:54.186Z,1021.97
2022-10-09T06:07:47.335Z,1021.94
2022-10-09T06:08:47.363Z,1021.99
2022-10-09T06:10:51.450Z,1022.01
2022-10-09T06:11:51.440Z,1021.98
2022-10-09T06:13:55.525Z,1021.98
2022-10-09T06:14:55.608Z,1022.02
2022-10-09T06:16:59.649Z,1022.06
2022-10-09T06:17:59.659Z,1022.07
2022-10-09T06:20:03.676Z,1022.13
2022-10-09T06:21:03.695Z,1022.12
2022-10-09T06:23:07.779Z,1022.13
2022-10-09T06:24:07.802Z,1022.15
2022-10-09T06:26:11.897Z,1022.16
2022-10-09T06:27:11.924Z,1022.17
2022-10-09T06:29:05.077Z,1022.17
2022-10-09T06:30:05.114Z,1022.18
2022-10-09T06:31:58.083Z,1022.21
2022-10-09T06:32:58.100Z,1022.21
2022-10-09T06:34:51.249Z,1022.21
2022-10-09T06:35:51.278Z,1022.18
2022-10-09T06:37:44.473Z,1022.24
2022-10-09T06:38:44.451Z,1022.24
2022-10-09T06:40:48.582Z,1022.26
2022-10-09T06:41:48.584Z,1022.27
2022-10-09T06:43:41.567Z,1022.29
2022-10-09T06:44:41.589Z,1022.32
2022-10-09T06:46:34.736Z,1022.36
2022-10-09T06:47:34.765Z,1022.38
2022-10-09T06:49:38.861Z,1022.40
2022-10-09T06:50:38.845Z,1022.45
2022-10-09T06:52:43.527Z,1022.41
2022-10-09T06:53:43.126Z,1022.42
2022-10-09T06:55:47.214Z,1022.42
2022-10-09T06:56:47.203Z,1022.42
2022-10-09T06:58:40.365Z,1022.48
2022-10-09T06:59:40.390Z,1022.46
2022-10-09T07:01:34.430Z,1022.51
2022-10-09T07:02:34.473Z,1022.51
2022-10-09T07:04:27.437Z,1022.54
2022-10-09T07:05:27.466Z,1022.58
2022-10-09T07:07:20.669Z,1022.54
2022-10-09T07:08:20.697Z,1022.58
2022-10-09T07:10:25.417Z,1022.60
2022-10-09T07:11:25.003Z,1022.60
2022-10-09T07:13:17.985Z,1022.58
2022-10-09T07:14:18.015Z,1022.61
2022-10-09T07:16:11.157Z,1022.58
2022-10-09T07:17:11.093Z,1022.63
2022-10-09T07:19:15.177Z,1022.65
2022-10-09T07:20:15.204Z,1022.64
2022-10-09T07:22:08.192Z,1022.65
2022-10-09T07:23:08.217Z,1022.70
2022-10-09T07:25:12.276Z,1022.67
2022-10-09T07:26:12.325Z,1022.68
2022-10-09T07:28:16.429Z,1022.72
2022-10-09T07:29:16.373Z,1022.72
2022-10-09T07:31:09.459Z,1022.72
2022-10-09T07:32:10.590Z,1022.74
2022-10-09T07:34:02.557Z,1022.73
2022-10-09T07:35:02.546Z,1022.76
2022-10-09T07:36:55.697Z,1022.77
2022-10-09T07:37:55.726Z,1022.77
2022-10-09T07:39:48.917Z,1022.77
2022-10-09T07:40:48.909Z,1022.78
2022-10-09T07:42:52.964Z,1022.74
2022-10-09T07:43:52.988Z,1022.75
2022-10-09T07:45:46.355Z,1022.80
2022-10-09T07:46:46.359Z,1022.80
2022-10-09T07:48:50.411Z,1022.82
2022-10-09T07:49:50.410Z,1022.81
2022-10-09T07:51:43.567Z,1022.80
2022-10-09T07:52:43.589Z,1022.85
2022-10-09T07:54:36.578Z,1022.84
2022-10-09T07:55:36.609Z,1022.85
2022-10-09T07:57:40.651Z,1022.87
2022-10-09T07:58:40.679Z,1022.89
2022-10-09T08:00:33.842Z,1022.87
2022-10-09T08:01:33.897Z,1022.91
2022-10-09T08:03:38.077Z,1022.93
2022-10-09T08:04:38.068Z,1022.98
2022-10-09T08:06:31.074Z,1022.90
2022-10-09T08:07:34.802Z,1022.93
2022-10-09T08:09:24.296Z,1022.91
2022-10-09T08:10:24.360Z,1022.94
2022-10-09T08:12:17.451Z,1022.93
2022-10-09T08:13:17.478Z,1022.95
2022-10-09T08:15:10.640Z,1022.93
2022-10-09T08:16:10.730Z,1022.94
2022-10-09T08:18:03.708Z,1023.01
2022-10-09T08:19:03.706Z,1022.97
2022-10-09T08:20:56.874Z,1023.02
2022-10-09T08:22:00.144Z,1023.06
2022-10-09T08:23:50.103Z,1023.06
2022-10-09T08:24:50.093Z,1023.06
2022-10-09T08:26:43.072Z,1023.08
2022-10-09T08:27:43.098Z,1023.07
2022-10-09T08:29:47.155Z,1023.09
2022-10-09T08:30:47.203Z,1023.05
2022-10-09T08:32:40.380Z,1023.13
2022-10-09T08:33:40.404Z,1023.13
2022-10-09T08:35:34.646Z,1023.13
2022-10-09T08:36:33.600Z,1023.12
2022-10-09T08:38:45.949Z,1023.15
2022-10-09T08:39:26.800Z,1023.11
2022-10-09T08:41:30.908Z,1023.12
2022-10-09T08:42:30.898Z,1023.18
2022-10-09T08:44:34.953Z,1023.22
2022-10-09T08:45:34.981Z,1023.22
2022-10-09T08:47:27.998Z,1023.28
2022-10-09T08:48:28.033Z,1023.26
2022-10-09T08:52:04.446Z,1023.24
2022-10-09T08:53:04.470Z,1023.29
2022-10-09T08:54:04.506Z,1023.29
2022-10-09T08:55:04.542Z,1023.26
2022-10-09T08:56:04.571Z,1023.28
2022-10-09T08:57:04.606Z,1023.25
2022-10-09T08:58:04.638Z,1023.23
2022-10-09T08:59:04.673Z,1023.21
2022-10-09T09:00:04.708Z,1023.25
2022-10-09T09:01:04.738Z,1023.26
2022-10-09T09:02:04.861Z,1023.22
2022-10-09T09:03:04.835Z,1023.24
2022-10-09T09:04:04.843Z,1023.25
2022-10-09T09:05:04.879Z,1023.20
2022-10-09T09:06:04.912Z,1023.21
2022-10-09T09:07:04.945Z,1023.22
2022-10-09T09:08:04.983Z,1023.25
2022-10-09T09:09:05.032Z,1023.21
2022-10-09T09:10:05.051Z,1023.22
2022-10-09T09:11:05.087Z,1023.21
2022-10-09T09:12:05.123Z,1023.23
2022-10-09T09:13:05.159Z,1023.20
2022-10-09T09:14:05.261Z,1023.24
2022-10-09T09:15:05.233Z,1023.25
2022-10-09T09:16:05.320Z,1023.20
2022-10-09T09:17:05.309Z,1023.23
2022-10-09T09:18:05.339Z,1023.20
2022-10-09T09:19:05.376Z,1023.16
2022-10-09T09:20:05.415Z,1023.12
2022-10-09T09:21:05.451Z,1023.18
2022-10-09T09:22:05.488Z,1023.22
2022-10-09T09:23:05.522Z,1023.16
2022-10-09T09:24:05.562Z,1023.19
2022-10-09T09:25:05.595Z,1023.15
2022-10-09T09:26:05.634Z,1023.19
2022-10-09T09:27:05.671Z,1023.19
2022-10-09T09:28:10.067Z,1023.17
2022-10-09T09:29:05.747Z,1023.13
2022-10-09T09:30:05.782Z,1023.11
2022-10-09T09:31:05.868Z,1023.09
2022-10-09T09:32:05.865Z,1023.07
2022-10-09T09:33:05.892Z,1023.09
2022-10-09T09:34:05.929Z,1023.09
2022-10-09T09:35:05.968Z,1023.06
2022-10-09T09:36:06.005Z,1023.10
2022-10-09T09:37:06.043Z,1023.10
2022-10-09T09:38:06.081Z,1023.10
2022-10-09T09:39:54.530Z,1023.11
2022-10-09T09:40:37.342Z,1023.13
2022-10-09T09:41:06.188Z,1023.09
2022-10-09T09:42:06.223Z,1023.07
2022-10-09T09:43:06.261Z,1023.06
2022-10-09T09:44:06.297Z,1023.05
2022-10-09T09:45:06.336Z,1023.05
2022-10-09T09:46:06.425Z,1023.04
2022-10-09T09:47:06.408Z,1023.12
2022-10-09T09:48:06.455Z,1023.09
2022-10-09T09:49:09.400Z,1023.03
2022-10-09T09:50:06.550Z,1023.05
2022-10-09T09:51:26.995Z,1023.03
2022-10-09T09:52:06.617Z,1023.04
2022-10-09T09:53:06.631Z,1023.03
2022-10-09T09:54:06.663Z,1023.05
2022-10-09T09:55:06.709Z,1023.06
2022-10-09T09:56:06.742Z,1023.02
2022-10-09T09:57:13.885Z,1023.04
2022-10-09T09:58:06.808Z,1023.05
2022-10-09T09:59:06.848Z,1023.04
2022-10-09T10:00:06.886Z,1023.06
2022-10-09T10:01:07.041Z,1023.04
2022-10-09T10:02:07.018Z,1023.09
2022-10-09T10:03:06.994Z,1023.10
2022-10-09T10:04:07.028Z,1023.12
2022-10-09T10:05:07.065Z,1023.12
2022-10-09T10:06:07.101Z,1023.14
2022-10-09T10:07:07.142Z,1023.16
2022-10-09T10:08:07.191Z,1023.12
2022-10-09T10:09:07.213Z,1023.13
2022-10-09T10:10:07.248Z,1023.17
2022-10-09T10:11:07.286Z,1023.14
2022-10-09T10:12:07.319Z,1023.07
2022-10-09T10:13:07.357Z,1023.10
2022-10-09T10:14:07.391Z,1023.10
2022-10-09T10:15:07.430Z,1023.08
2022-10-09T10:16:07.531Z,1023.13
2022-10-09T10:17:07.515Z,1023.12
2022-10-09T10:18:07.541Z,1023.15
2022-10-09T10:19:07.579Z,1023.15
2022-10-09T10:20:07.616Z,1023.10
2022-10-09T10:21:07.655Z,1023.13
2022-10-09T10:22:07.693Z,1023.08
2022-10-09T10:23:07.733Z,1023.05
2022-10-09T10:24:07.773Z,1023.05
2022-10-09T10:25:10.461Z,1022.99
2022-10-09T10:26:07.851Z,1023.01
2022-10-09T10:27:07.894Z,1023.07
2022-10-09T10:28:07.950Z,1023.04
2022-10-09T10:29:07.975Z,1022.91
2022-10-09T10:30:08.018Z,1022.90
2022-10-09T10:31:08.112Z,1022.86
2022-10-09T10:32:08.098Z,1022.87
2022-10-09T10:33:08.140Z,1022.86
2022-10-09T10:34:08.187Z,1022.85
2022-10-09T10:35:08.225Z,1022.94
2022-10-09T10:36:08.269Z,1022.98
2022-10-09T10:37:08.310Z,1022.95
2022-10-09T10:38:08.351Z,1022.97
2022-10-09T10:39:08.394Z,1022.96
2022-10-09T10:40:08.437Z,1022.99
2022-10-09T10:41:08.478Z,1022.94
2022-10-09T10:42:08.519Z,1022.85
2022-10-09T10:43:08.564Z,1022.86
2022-10-09T10:44:08.615Z,1022.93
2022-10-09T10:45:08.648Z,1022.85
2022-10-09T10:46:08.695Z,1022.86
2022-10-09T10:47:08.733Z,1022.85
2022-10-09T10:48:08.780Z,1022.83
2022-10-09T10:49:08.817Z,1022.85
2022-10-09T10:50:08.860Z,1022.81
2022-10-09T10:51:08.907Z,1022.79
2022-10-09T10:52:08.944Z,1022.87
2022-10-09T10:53:08.991Z,1022.84
2022-10-09T10:54:09.030Z,1022.78
2022-10-09T10:55:09.076Z,1022.76
2022-10-09T10:56:09.110Z,1022.83
2022-10-09T10:57:09.153Z,1022.83
2022-10-09T10:58:09.222Z,1022.85
2022-10-09T10:59:09.234Z,1022.78
2022-10-09T11:00:09.274Z,1022.75
2022-10-09T11:01:09.349Z,1022.77
2022-10-09T11:02:09.355Z,1022.75
2022-10-09T11:03:09.521Z,1022.69
2022-10-09T11:04:09.439Z,1022.61
2022-10-09T11:05:09.482Z,1022.58
2022-10-09T11:06:09.523Z,1022.63
2022-10-09T11:07:09.564Z,1022.61
2022-10-09T11:08:09.604Z,1022.58
2022-10-09T11:09:09.646Z,1022.59
2022-10-09T11:10:09.686Z,1022.62
2022-10-09T11:11:09.729Z,1022.64
2022-10-09T11:12:19.274Z,1022.56
2022-10-09T11:13:09.812Z,1022.56
2022-10-09T11:14:09.853Z,1022.58
2022-10-09T11:15:09.894Z,1022.52
2022-10-09T11:16:09.973Z,1022.57
2022-10-09T11:17:09.974Z,1022.58
2022-10-09T11:18:10.018Z,1022.48
2022-10-09T11:19:10.057Z,1022.50
2022-10-09T11:20:10.098Z,1022.50
2022-10-09T11:21:10.138Z,1022.48
2022-10-09T11:22:10.179Z,1022.48
2022-10-09T11:23:10.222Z,1022.47
2022-10-09T11:24:10.257Z,1022.45
2022-10-09T11:25:10.298Z,1022.47
2022-10-09T11:26:10.338Z,1022.46
2022-10-09T11:27:10.380Z,1022.43
2022-10-09T11:28:10.433Z,1022.45
2022-10-09T11:29:10.458Z,1022.48
2022-10-09T11:30:10.502Z,1022.47
2022-10-09T11:31:10.583Z,1022.43
2022-10-09T11:32:10.576Z,1022.46
2022-10-09T11:33:10.615Z,1022.40
2022-10-09T11:34:10.654Z,1022.40
2022-10-09T11:35:10.697Z,1022.32
2022-10-09T11:36:10.735Z,1022.32
2022-10-09T11:37:10.775Z,1022.28
2022-10-09T11:38:11.395Z,1022.32
2022-10-09T11:39:10.857Z,1022.35
2022-10-09T11:40:10.900Z,1022.34
2022-10-09T11:41:10.940Z,1022.33
2022-10-09T11:42:10.979Z,1022.35
2022-10-09T11:43:11.022Z,1022.36
2022-10-09T11:44:11.062Z,1022.29
2022-10-09T11:45:11.108Z,1022.25
2022-10-09T11:46:11.206Z,1022.24
2022-10-09T11:47:11.189Z,1022.26
2022-10-09T11:48:11.231Z,1022.23
2022-10-09T11:49:11.273Z,1022.20
2022-10-09T11:50:11.315Z,1022.22
2022-10-09T11:51:11.363Z,1022.28
2022-10-09T11:52:11.405Z,1022.18
2022-10-09T11:53:11.446Z,1022.20
2022-10-09T11:54:11.490Z,1022.21
2022-10-09T11:55:11.533Z,1022.18
2022-10-09T11:56:11.575Z,1022.13
2022-10-09T11:57:15.162Z,1022.13
2022-10-09T11:58:11.661Z,1022.10
2022-10-09T11:59:11.706Z,1022.16
2022-10-09T12:00:11.750Z,1022.13
2022-10-09T12:01:11.849Z,1022.08
2022-10-09T12:02:11.905Z,1022.16
2022-10-09T12:03:11.882Z,1022.15
2022-10-09T12:04:11.925Z,1022.11
2022-10-09T12:05:11.969Z,1022.09
2022-10-09T12:06:12.012Z,1022.12
2022-10-09T12:07:12.061Z,1022.12
2022-10-09T12:08:15.237Z,1022.14
2022-10-09T12:09:12.147Z,1022.19
2022-10-09T12:10:12.194Z,1022.03
2022-10-09T12:11:12.239Z,1022.02
2022-10-09T12:12:12.282Z,1021.97
2022-10-09T12:13:12.325Z,1021.97
2022-10-09T12:14:13.173Z,1021.97
2022-10-09T12:15:12.414Z,1022.00
2022-10-09T12:16:12.491Z,1021.99
2022-10-09T12:17:12.501Z,1021.96
2022-10-09T12:18:12.544Z,1021.96
2022-10-09T12:19:12.589Z,1021.96
2022-10-09T12:20:12.630Z,1021.97
2022-10-09T12:21:12.676Z,1022.02
2022-10-09T12:22:12.716Z,1021.94
2022-10-09T12:23:28.468Z,1021.96
2022-10-09T12:24:12.802Z,1021.95
2022-10-09T12:25:12.845Z,1021.89
2022-10-09T12:26:12.885Z,1021.89
2022-10-09T12:27:12.943Z,1021.95
2022-10-09T12:28:13.056Z,1021.97
2022-10-09T12:29:13.035Z,1021.93
2022-10-09T12:30:13.170Z,1021.98
2022-10-09T12:31:13.197Z,1021.95
2022-10-09T12:32:13.135Z,1022.03
2022-10-09T12:33:13.175Z,1021.97
2022-10-09T12:34:13.220Z,1021.90
2022-10-09T12:35:13.258Z,1021.86
2022-10-09T12:36:13.300Z,1021.86
2022-10-09T12:37:13.343Z,1021.87
2022-10-09T12:38:13.386Z,1021.93
2022-10-09T12:39:13.431Z,1021.87
2022-10-09T12:40:13.545Z,1021.79
2022-10-09T12:41:17.915Z,1021.77
2022-10-09T12:42:13.602Z,1021.79
2022-10-09T12:43:13.599Z,1021.67
2022-10-09T12:44:13.640Z,1021.65
2022-10-09T12:45:13.684Z,1021.74
2022-10-09T12:46:13.757Z,1021.76
2022-10-09T12:47:13.769Z,1021.69
2022-10-09T12:48:13.812Z,1021.69
2022-10-09T12:49:13.854Z,1021.73
2022-10-09T12:50:13.899Z,1021.67
2022-10-09T12:51:13.942Z,1021.64
2022-10-09T12:52:13.983Z,1021.64
2022-10-09T12:53:14.026Z,1021.61
2022-10-09T12:54:14.066Z,1021.59
2022-10-09T12:55:14.110Z,1021.58
2022-10-09T12:56:14.151Z,1021.60
2022-10-09T12:57:14.195Z,1021.59
2022-10-09T12:58:14.235Z,1021.54
2022-10-09T12:59:14.278Z,1021.56
2022-10-09T13:00:14.321Z,1021.53
2022-10-09T13:01:14.498Z,1021.50
2022-10-09T13:02:14.576Z,1021.60
2022-10-09T13:03:14.439Z,1021.52
2022-10-09T13:04:14.479Z,1021.53
2022-10-09T13:05:14.523Z,1021.56
2022-10-09T13:06:14.560Z,1021.50
2022-10-09T13:07:14.601Z,1021.52
2022-10-09T13:08:14.641Z,1021.55
2022-10-09T13:09:14.681Z,1021.52
2022-10-09T13:10:14.721Z,1021.48
2022-10-09T13:11:14.763Z,1021.45
2022-10-09T13:12:14.803Z,1021.45
2022-10-09T13:13:14.844Z,1021.43
2022-10-09T13:14:14.885Z,1021.48
2022-10-09T13:15:18.826Z,1021.42
2022-10-09T13:16:15.021Z,1021.45
2022-10-09T13:17:15.005Z,1021.47
2022-10-09T13:18:15.047Z,1021.42
2022-10-09T13:19:15.090Z,1021.43
2022-10-09T13:20:15.134Z,1021.43
2022-10-09T13:21:15.169Z,1021.41
2022-10-09T13:22:15.209Z,1021.40
2022-10-09T13:23:15.251Z,1021.38
2022-10-09T13:24:15.292Z,1021.33
2022-10-09T13:25:15.333Z,1021.40
2022-10-09T13:26:15.374Z,1021.34
2022-10-09T13:27:15.427Z,1021.36
2022-10-09T13:28:15.479Z,1021.31
2022-10-09T13:29:15.496Z,1021.33
2022-10-09T13:30:15.538Z,1021.31
2022-10-09T13:31:15.641Z,1021.28
2022-10-09T13:32:15.621Z,1021.35
2022-10-09T13:33:15.668Z,1021.28
2022-10-09T13:34:15.699Z,1021.30
2022-10-09T13:35:15.741Z,1021.32
2022-10-09T13:36:15.785Z,1021.35
2022-10-09T13:37:15.852Z,1021.30
2022-10-09T13:38:15.860Z,1021.30
2022-10-09T13:39:15.905Z,1021.29
2022-10-09T13:40:15.941Z,1021.38
2022-10-09T13:41:15.981Z,1021.35
2022-10-09T13:42:16.019Z,1021.36
2022-10-09T13:43:16.063Z,1021.36
2022-10-09T13:44:16.100Z,1021.36
2022-10-09T13:45:16.142Z,1021.35
2022-10-09T13:46:16.242Z,1021.35
2022-10-09T13:47:18.619Z,1021.40
2022-10-09T13:48:16.260Z,1021.27
2022-10-09T13:49:16.299Z,1021.28
2022-10-09T13:50:16.343Z,1021.29
2022-10-09T13:51:16.381Z,1021.23
2022-10-09T13:52:16.422Z,1021.30
2022-10-09T13:53:16.459Z,1021.25
2022-10-09T13:54:16.503Z,1021.25
2022-10-09T13:55:16.548Z,1021.27
2022-10-09T13:56:16.585Z,1021.26
2022-10-09T13:57:16.634Z,1021.28
2022-10-09T13:58:16.668Z,1021.26
2022-10-09T13:59:16.710Z,1021.25
2022-10-09T14:00:16.752Z,1021.23
2022-10-09T14:01:16.897Z,1021.14
2022-10-09T14:02:16.836Z,1021.16
2022-10-09T14:03:16.875Z,1021.17
2022-10-09T14:04:16.921Z,1021.12
2022-10-09T14:05:16.976Z,1021.14
2022-10-09T14:06:17.004Z,1021.14